Time,TemperatureF,DewpointF,PressureIn,WindDirection,WindDirectionDegrees,WindSpeedMPH,WindSpeedGustMPH,Humidity,HourlyPrecipIn,Conditions,Clouds,dailyrainin,SolarRadiationWatts/m^2,SoftwareType,DateUTC
2013-04-23 00:04:00,55.9,42.6,29.98,SW,216,8.1,10.4,61,0.00,RA,,0.00,0.0,WeatherDisplay:10.37,2013-04-23 05:04:00,
2013-04-23 00:09:00,55.7,42.9,29.98,SSW,207,7.8,8.4,62,0.00,RA,,0.00,0.0,WeatherDisplay:10.37,2013-04-23 05:09:00,
2013-04-23 00:14:00,55.7,43.3,29.98,SSW,210,15.9,23.0,63,0.00,BKN,,0.00,0.0,WeatherDisplay:10.37,2013-04-23 05:14:00,
2013-04-23 00:19:00,55.3,44.1,29.98,SSW,209,10.0,16.1,66,0.00,BKN,,0.00,0.0,WeatherDisplay:10.37,2013-04-23 05:19:00,
2013-04-23 00:24:00,54.8,44.8,29.98,SW,218,8.3,10.8,69,0.00,BKN,,0.00,0.0,WeatherDisplay:10.37,2013-04-23 05:24:00,
2013-04-23 00:29:00,54.1,44.9,29.98,SW,220,8.0,9.6,71,0.00,BKN,,0.00,0.0,WeatherDisplay:10.37,2013-04-23 05:29:00,
2013-04-23 00:34:00,53.8,45.3,29.98,SSW,202,8.5,12.0,73,0.00,BKN,,0.00,0.0,WeatherDisplay:10.37,2013-04-23 05:34:00,
2013-04-23 00:39:00,53.5,45.4,29.98,SSW,210,5.8,6.9,74,0.00,BKN,,0.00,0.0,WeatherDisplay:10.37,2013-04-23 05:39:00,
2013-04-23 00:44:00,53.1,45.7,29.97,SSW,209,4.7,4.8,76,0.00,OVC,,0.00,0.0,WeatherDisplay:10.37,2013-04-23 05:44:00,
2013-04-23 00:49:00,52.8,45.8,29.97,SW,219,4.5,6.9,77,0.00,OVC,,0.00,0.0,WeatherDisplay:10.37,2013-04-23 05:49:00,
2013-04-23 00:54:00,52.6,45.9,29.97,SSW,205,5.5,7.2,78,0.00,OVC,,0.00,0.0,WeatherDisplay:10.37,2013-04-23 05:54:00,
2013-04-23 00:59:00,52.5,46.2,29.97,SW,217,8.3,9.6,79,0.00,OVC,,0.00,0.0,WeatherDisplay:10.37,2013-04-23 05:59:00,
2013-04-23 01:04:00,52.3,46.3,29.97,SSW,198,8.1,9.6,80,0.00,OVC,,0.00,0.0,WeatherDisplay:10.37,2013-04-23 06:04:00,
2013-04-23 01:09:00,52.3,46.6,29.97,SSW,200,7.8,9.2,81,0.00,OVC,,0.00,0.0,WeatherDisplay:10.37,2013-04-23 06:09:00,
2013-04-23 01:14:00,52.2,46.9,29.97,SSW,196,10.1,13.2,82,0.00,OVC,,0.00,0.0,WeatherDisplay:10.37,2013-04-23 06:14:00,
2013-04-23 01:19:00,51.9,46.9,29.96,SSW,200,4.6,4.8,83,0.00,OVC,,0.00,0.0,WeatherDisplay:10.37,2013-04-23 06:19:00,
2013-04-23 01:24:00,51.6,46.9,29.96,SSW,210,7.9,8.4,84,0.00,OVC,,0.00,0.0,WeatherDisplay:10.37,2013-04-23 06:24:00,
2013-04-23 01:29:00,51.4,47.4,29.96,South,184,6.5,7.2,86,0.00,OVC,,0.00,0.0,WeatherDisplay:10.37,2013-04-23 06:29:00,
2013-04-23 01:34:00,51.1,47.4,29.96,SSW,200,4.5,7.2,87,0.00,OVC,,0.00,0.0,WeatherDisplay:10.37,2013-04-23 06:34:00,
2013-04-23 01:39:00,51.0,47.3,29.96,SSW,201,2.6,4.8,87,0.00,OVC,,0.00,0.0,WeatherDisplay:10.37,2013-04-23 06:39:00,
2013-04-23 01:44:00,50.8,47.4,29.96,South,179,1.7,3.6,88,0.00,OVC,,0.00,0.0,WeatherDisplay:10.37,2013-04-23 06:44:00,
2013-04-23 01:49:00,50.7,47.3,29.94,South,184,1.2,3.6,88,0.00,OVC,,0.00,0.0,WeatherDisplay:10.37,2013-04-23 06:49:00,
2013-04-23 01:54:00,50.5,47.4,29.94,SSE,168,3.9,6.0,89,0.00,OVC,,0.00,0.0,WeatherDisplay:10.37,2013-04-23 06:54:00,
2013-04-23 01:59:00,50.5,47.4,29.94,South,173,2.8,4.8,89,0.01,RA,,0.01,0.0,WeatherDisplay:10.37,2013-04-23 06:59:00,
2013-04-23 02:04:00,50.4,47.3,29.93,South,173,1.2,4.8,89,0.01,RA,,0.01,0.0,WeatherDisplay:10.37,2013-04-23 07:04:00,
2013-04-23 02:09:00,50.2,47.4,29.93,South,173,0.0,0.0,90,0.01,OVC,,0.01,0.0,WeatherDisplay:10.37,2013-04-23 07:09:00,
2013-04-23 02:14:00,50.1,47.3,29.93,South,173,1.2,4.8,90,0.01,OVC,,0.01,0.0,WeatherDisplay:10.37,2013-04-23 07:14:00,
2013-04-23 02:19:00,50.1,47.3,29.92,South,173,1.4,4.8,90,0.01,OVC,,0.01,0.0,WeatherDisplay:10.37,2013-04-23 07:19:00,
2013-04-23 02:24:00,50.2,47.4,29.92,South,182,2.0,6.0,90,0.01,OVC,,0.01,0.0,WeatherDisplay:10.37,2013-04-23 07:24:00,
2013-04-23 02:29:00,50.1,47.3,29.92,SSW,192,0.8,8.1,90,0.01,OVC,,0.01,0.0,WeatherDisplay:10.37,2013-04-23 07:29:00,
2013-04-23 02:34:00,50.1,47.3,29.92,South,189,0.0,0.0,90,0.01,OVC,,0.01,0.0,WeatherDisplay:10.37,2013-04-23 07:34:00,
2013-04-23 02:39:00,50.1,47.3,29.92,South,182,1.1,4.8,90,0.01,OVC,,0.01,0.0,WeatherDisplay:10.37,2013-04-23 07:39:00,
2013-04-23 02:44:00,50.1,47.3,29.92,SSE,151,2.0,4.8,90,0.01,-DZ,,0.01,0.0,WeatherDisplay:10.37,2013-04-23 07:44:00,
2013-04-23 02:49:00,50.1,47.3,29.93,South,190,3.9,6.0,90,0.01,-DZ,,0.01,0.0,WeatherDisplay:10.37,2013-04-23 07:49:00,
2013-04-23 02:54:00,50.1,47.3,29.93,SSW,194,1.6,6.0,90,0.01,-DZ,,0.01,0.0,WeatherDisplay:10.37,2013-04-23 07:54:00,
2013-04-23 02:59:00,50.1,47.3,29.93,South,178,4.8,7.2,90,0.00,-DZ,,0.01,0.0,WeatherDisplay:10.37,2013-04-23 07:59:00,
2013-04-23 03:04:00,50.2,47.4,29.91,SSE,159,2.3,5.8,90,0.00,-DZ,,0.01,0.0,WeatherDisplay:10.37,2013-04-23 08:04:00,
2013-04-23 03:09:00,50.2,47.4,29.91,South,184,2.2,4.8,90,0.00,-DZ,,0.01,0.0,WeatherDisplay:10.37,2013-04-23 08:09:00,
2013-04-23 03:14:00,50.2,47.1,29.91,South,179,4.2,6.0,89,0.00,OVC,,0.01,0.0,WeatherDisplay:10.37,2013-04-23 08:14:00,
2013-04-23 03:19:00,50.2,47.1,29.91,SSW,194,6.1,6.1,89,0.00,OVC,,0.01,0.0,WeatherDisplay:10.37,2013-04-23 08:19:00,
2013-04-23 03:24:00,50.1,47.0,29.91,SSW,197,4.8,6.0,89,0.00,-DZ,,0.01,0.0,WeatherDisplay:10.37,2013-04-23 08:24:00,
2013-04-23 03:29:00,50.1,47.0,29.91,SSW,192,7.2,11.5,89,0.00,-DZ,,0.01,0.0,WeatherDisplay:10.37,2013-04-23 08:29:00,
2013-04-23 03:34:00,50.1,47.0,29.91,SW,217,6.1,7.2,89,0.00,-DZ,,0.01,0.0,WeatherDisplay:10.37,2013-04-23 08:34:00,
2013-04-23 03:39:00,50.1,47.3,29.91,SSW,205,3.9,4.8,90,0.00,-DZ,,0.01,0.0,WeatherDisplay:10.37,2013-04-23 08:39:00,
2013-04-23 03:44:00,49.9,47.1,29.91,SSW,202,2.1,7.2,90,0.00,-RA,,0.01,0.0,WeatherDisplay:10.37,2013-04-23 08:44:00,
2013-04-23 03:49:00,49.9,47.1,29.91,SSW,208,6.3,7.2,90,0.00,-RA,,0.01,0.0,WeatherDisplay:10.37,2013-04-23 08:49:00,
2013-04-23 03:54:00,49.9,47.1,29.91,SSW,205,4.9,6.0,90,0.00,-RA,,0.01,0.0,WeatherDisplay:10.37,2013-04-23 08:54:00,
2013-04-23 03:59:00,49.9,47.1,29.91,SSW,204,6.5,8.4,90,0.00,-RA,,0.01,0.0,WeatherDisplay:10.37,2013-04-23 08:59:00,
2013-04-23 04:04:00,49.9,47.1,29.90,SSW,200,5.2,7.2,90,0.00,OVC,,0.01,0.0,WeatherDisplay:10.37,2013-04-23 09:04:00,
2013-04-23 04:09:00,49.9,47.1,29.90,WNW,296,9.2,12.0,90,0.00,OVC,,0.01,0.0,WeatherDisplay:10.37,2013-04-23 09:09:00,
2013-04-23 04:14:00,45.5,41.6,29.90,WNW,300,13.5,19.6,86,0.00,OVC,,0.01,0.0,WeatherDisplay:10.37,2013-04-23 09:14:00,
2013-04-23 04:19:00,43.3,40.0,29.93,WNW,288,7.8,11.5,88,0.00,OVC,,0.01,0.0,WeatherDisplay:10.37,2013-04-23 09:19:00,
2013-04-23 04:24:00,41.8,39.1,29.93,WNW,283,11.6,13.2,90,0.00,-DZ,,0.01,0.0,WeatherDisplay:10.37,2013-04-23 09:24:00,
2013-04-23 04:29:00,40.8,38.4,29.93,NW,313,8.0,13.2,91,0.00,-DZ,,0.01,0.0,WeatherDisplay:10.37,2013-04-23 09:29:00,
2013-04-23 04:34:00,40.1,37.7,29.93,NW,306,5.1,8.4,91,0.00,-DZ,,0.01,0.0,WeatherDisplay:10.37,2013-04-23 09:34:00,
2013-04-23 04:39:00,39.3,37.2,29.93,WNW,290,6.5,10.4,92,0.01,-DZ,,0.02,0.0,WeatherDisplay:10.37,2013-04-23 09:39:00,
2013-04-23 04:44:00,38.8,36.7,29.93,WSW,251,6.0,9.2,92,0.01,RA,,0.02,0.0,WeatherDisplay:10.37,2013-04-23 09:44:00,
2013-04-23 04:49:00,38.3,36.2,29.94,WNW,288,3.1,6.9,92,0.01,OVC,,0.02,0.0,WeatherDisplay:10.37,2013-04-23 09:49:00,
2013-04-23 04:54:00,38.0,36.2,29.94,West,263,3.0,7.2,93,0.01,OVC,,0.02,0.0,WeatherDisplay:10.37,2013-04-23 09:54:00,
2013-04-23 04:59:00,37.8,36.0,29.94,WNW,293,6.4,9.2,93,0.01,OVC,,0.03,0.0,WeatherDisplay:10.37,2013-04-23 09:59:00,
2013-04-23 05:04:00,37.5,35.7,29.93,West,275,5.4,7.2,93,0.02,RA,,0.03,0.0,WeatherDisplay:10.37,2013-04-23 10:04:00,
2013-04-23 05:09:00,37.3,35.5,29.93,NW,317,3.7,4.6,93,0.02,RA,,0.03,0.0,WeatherDisplay:10.37,2013-04-23 10:09:00,
2013-04-23 05:14:00,37.0,35.2,29.93,NW,314,0.2,3.6,93,0.02,OVC,,0.03,0.0,WeatherDisplay:10.37,2013-04-23 10:14:00,
2013-04-23 05:19:00,36.9,35.1,29.93,NW,312,0.6,5.8,93,0.02,OVC,,0.03,0.0,WeatherDisplay:10.37,2013-04-23 10:19:00,
2013-04-23 05:24:00,36.8,35.0,29.93,WNW,291,3.2,4.8,93,0.02,OVC,,0.03,0.0,WeatherDisplay:10.37,2013-04-23 10:24:00,
2013-04-23 05:29:00,36.3,34.5,29.94,West,260,9.4,12.0,93,0.02,OVC,,0.03,0.0,WeatherDisplay:10.37,2013-04-23 10:29:00,
2013-04-23 05:34:00,36.0,34.2,29.94,West,270,6.3,8.4,93,0.02,OVC,,0.03,0.0,WeatherDisplay:10.37,2013-04-23 10:34:00,
2013-04-23 05:39:00,35.9,34.1,29.94,West,274,5.5,8.4,93,0.01,OVC,,0.03,0.0,WeatherDisplay:10.37,2013-04-23 10:39:00,
2013-04-23 05:44:00,35.8,34.0,29.94,NW,319,8.8,13.2,93,0.01,OVC,,0.03,0.0,WeatherDisplay:10.37,2013-04-23 10:44:00,
2013-04-23 05:49:00,35.8,34.0,29.97,West,279,7.2,8.4,93,0.01,OVC,,0.03,0.0,WeatherDisplay:10.37,2013-04-23 10:49:00,
2013-04-23 05:54:00,35.6,33.8,29.97,WNW,282,5.3,10.4,93,0.01,OVC,,0.03,0.0,WeatherDisplay:10.37,2013-04-23 10:54:00,
2013-04-23 05:59:00,35.6,33.8,29.96,NW,311,3.9,4.8,93,0.00,OVC,,0.03,0.0,WeatherDisplay:10.37,2013-04-23 10:59:00,
2013-04-23 06:04:00,35.5,33.7,29.96,West,278,7.0,8.4,93,0.00,OVC,,0.03,0.0,WeatherDisplay:10.37,2013-04-23 11:04:00,
2013-04-23 06:09:00,35.3,33.5,29.96,NW,313,3.9,12.7,93,0.00,OVC,,0.03,0.0,WeatherDisplay:10.37,2013-04-23 11:09:00,
2013-04-23 06:14:00,35.3,33.5,29.96,NW,319,6.8,8.4,93,0.00,OVC,,0.03,0.0,WeatherDisplay:10.37,2013-04-23 11:14:00,
2013-04-23 06:19:00,35.0,32.9,29.98,West,277,6.7,13.2,92,0.00,OVC,,0.03,0.0,WeatherDisplay:10.37,2013-04-23 11:19:00,
2013-04-23 06:24:00,34.9,32.8,29.98,WSW,248,7.4,13.2,92,0.00,OVC,,0.03,0.0,WeatherDisplay:10.37,2013-04-23 11:24:00,
2013-04-23 06:29:00,34.6,32.5,29.98,WSW,244,9.7,14.4,92,0.00,OVC,,0.03,0.0,WeatherDisplay:10.37,2013-04-23 11:29:00,
2013-04-23 06:34:00,34.6,32.5,29.98,WNW,291,6.9,8.4,92,0.00,OVC,,0.03,5.0,WeatherDisplay:10.37,2013-04-23 11:34:00,
2013-04-23 06:39:00,34.6,32.5,29.98,SW,233,9.3,12.0,92,0.00,OVC,,0.03,9.0,WeatherDisplay:10.37,2013-04-23 11:39:00,
2013-04-23 06:44:00,34.6,32.5,29.98,WNW,296,6.3,8.4,92,0.00,OVC,,0.03,11.0,WeatherDisplay:10.37,2013-04-23 11:44:00,
2013-04-23 06:49:00,34.4,32.0,29.99,WNW,286,10.2,15.0,91,0.00,OVC,,0.03,7.0,WeatherDisplay:10.37,2013-04-23 11:49:00,
2013-04-23 06:54:00,34.6,32.2,29.99,WNW,303,7.6,9.6,91,0.00,OVC,,0.03,5.0,WeatherDisplay:10.37,2013-04-23 11:54:00,
2013-04-23 06:59:00,34.6,32.2,29.99,WNW,290,6.6,10.4,91,0.00,OVC,,0.03,18.0,WeatherDisplay:10.37,2013-04-23 11:59:00,
2013-04-23 07:04:00,34.4,32.0,29.98,NW,319,10.4,16.1,91,0.00,BKN,,0.03,25.0,WeatherDisplay:10.37,2013-04-23 12:04:00,
2013-04-23 07:09:00,34.4,32.0,29.98,WNW,299,7.2,9.2,91,0.00,BKN,,0.03,25.0,WeatherDisplay:10.37,2013-04-23 12:09:00,
2013-04-23 07:14:00,34.6,32.2,29.98,NW,315,7.5,10.8,91,0.00,BKN,,0.03,18.0,WeatherDisplay:10.37,2013-04-23 12:14:00,
2013-04-23 07:19:00,34.4,32.0,29.99,WNW,286,10.4,16.1,91,0.00,BKN,,0.03,16.0,WeatherDisplay:10.37,2013-04-23 12:19:00,
2013-04-23 07:24:00,34.6,32.2,29.99,WNW,282,7.1,10.8,91,0.00,OVC,,0.03,18.0,WeatherDisplay:10.37,2013-04-23 12:24:00,
2013-04-23 07:29:00,34.6,32.2,29.99,NW,321,5.8,8.4,91,0.00,OVC,,0.03,26.0,WeatherDisplay:10.37,2013-04-23 12:29:00,
2013-04-23 07:34:00,34.6,32.2,29.98,WNW,284,6.1,12.7,91,0.00,OVC,,0.03,30.0,WeatherDisplay:10.37,2013-04-23 12:34:00,
2013-04-23 07:39:00,34.7,32.3,29.98,WNW,294,6.0,9.6,91,0.00,OVC,,0.03,28.0,WeatherDisplay:10.37,2013-04-23 12:39:00,
2013-04-23 07:44:00,34.7,32.1,29.98,NW,323,8.4,10.8,90,0.00,OVC,,0.03,33.0,WeatherDisplay:10.37,2013-04-23 12:44:00,
2013-04-23 07:49:00,34.7,32.1,30.00,WNW,297,3.8,8.4,90,0.00,OVC,,0.03,39.0,WeatherDisplay:10.37,2013-04-23 12:49:00,
2013-04-23 07:54:00,34.9,32.3,30.00,WNW,290,6.6,8.4,90,0.00,OVC,,0.03,60.0,WeatherDisplay:10.37,2013-04-23 12:54:00,
2013-04-23 07:59:00,34.7,31.8,30.00,NW,319,9.7,15.0,89,0.00,OVC,,0.03,60.0,WeatherDisplay:10.37,2013-04-23 12:59:00,
2013-04-23 08:04:00,34.9,32.0,30.01,NW,306,7.2,9.6,89,0.00,BKN,,0.03,53.0,WeatherDisplay:10.37,2013-04-23 13:04:00,
2013-04-23 08:09:00,35.0,32.1,30.01,NW,310,5.6,7.2,89,0.00,BKN,,0.03,49.0,WeatherDisplay:10.37,2013-04-23 13:09:00,
2013-04-23 08:14:00,35.2,32.3,30.01,NNW,332,2.8,8.1,89,0.00,BKN,,0.03,47.0,WeatherDisplay:10.37,2013-04-23 13:14:00,
2013-04-23 08:19:00,35.0,31.5,30.01,WNW,295,9.2,10.8,87,0.00,BKN,,0.03,56.0,WeatherDisplay:10.37,2013-04-23 13:19:00,
2013-04-23 08:24:00,35.0,31.5,30.01,NW,315,8.8,13.2,87,0.00,SCT,,0.03,51.0,WeatherDisplay:10.37,2013-04-23 13:24:00,
2013-04-23 08:29:00,35.2,31.7,30.01,NW,306,6.7,9.6,87,0.00,SCT,,0.03,98.0,WeatherDisplay:10.37,2013-04-23 13:29:00,
2013-04-23 08:34:00,35.2,31.7,30.01,NNW,331,4.2,6.0,87,0.00,SCT,,0.03,62.0,WeatherDisplay:10.37,2013-04-23 13:34:00,
2013-04-23 08:39:00,35.2,31.7,30.01,NNW,339,9.8,15.6,87,0.00,SCT,,0.03,86.0,WeatherDisplay:10.37,2013-04-23 13:39:00,
2013-04-23 08:44:00,35.2,31.7,30.01,NW,315,6.4,12.0,87,0.00,SCT,,0.03,74.0,WeatherDisplay:10.37,2013-04-23 13:44:00,
2013-04-23 08:49:00,35.0,31.5,30.01,NW,309,10.1,13.2,87,0.00,SCT,,0.03,58.0,WeatherDisplay:10.37,2013-04-23 13:49:00,
2013-04-23 08:54:00,35.0,31.5,30.01,North,351,7.8,12.0,87,0.00,SCT,,0.03,58.0,WeatherDisplay:10.37,2013-04-23 13:54:00,
2013-04-23 08:59:00,35.0,31.5,30.01,NW,311,9.2,12.0,87,0.00,SCT,,0.03,60.0,WeatherDisplay:10.37,2013-04-23 13:59:00,
2013-04-23 09:04:00,35.0,31.2,30.01,WSW,258,7.7,12.7,86,0.00,SCT,,0.03,91.0,WeatherDisplay:10.37,2013-04-23 14:04:00,
2013-04-23 09:09:00,35.0,31.2,30.01,WNW,300,7.0,10.8,86,0.00,SCT,,0.03,88.0,WeatherDisplay:10.37,2013-04-23 14:09:00,
2013-04-23 09:14:00,35.2,31.4,30.01,NNW,340,6.0,9.6,86,0.00,SCT,,0.03,79.0,WeatherDisplay:10.37,2013-04-23 14:14:00,
2013-04-23 09:19:00,35.2,31.4,30.01,WNW,294,6.2,9.6,86,0.00,SCT,,0.03,114.0,WeatherDisplay:10.37,2013-04-23 14:19:00,
2013-04-23 09:24:00,35.3,31.5,30.01,NW,323,4.3,7.2,86,0.00,SCT,,0.03,86.0,WeatherDisplay:10.37,2013-04-23 14:24:00,
2013-04-23 09:29:00,35.3,31.2,30.01,NNW,341,6.2,7.2,85,0.00,SCT,,0.03,109.0,WeatherDisplay:10.37,2013-04-23 14:29:00,
2013-04-23 09:34:00,35.3,31.2,30.01,WNW,296,5.9,8.4,85,0.00,SCT,,0.03,107.0,WeatherDisplay:10.37,2013-04-23 14:34:00,
2013-04-23 09:39:00,35.5,31.4,30.01,West,281,3.3,7.2,85,0.00,SCT,,0.03,135.0,WeatherDisplay:10.37,2013-04-23 14:39:00,
2013-04-23 09:44:00,35.5,31.7,30.03,NW,312,4.7,11.5,86,0.00,SCT,,0.03,139.0,WeatherDisplay:10.37,2013-04-23 14:44:00,
2013-04-23 09:49:00,35.5,31.7,30.03,NW,316,1.8,6.0,86,0.00,SCT,,0.03,160.0,WeatherDisplay:10.37,2013-04-23 14:49:00,
2013-04-23 09:54:00,35.5,31.7,30.03,NNW,331,7.7,10.4,86,0.00,SCT,,0.03,153.0,WeatherDisplay:10.37,2013-04-23 14:54:00,
2013-04-23 09:59:00,35.3,31.8,30.03,NW,309,5.7,8.1,87,0.00,SCT,,0.03,130.0,WeatherDisplay:10.37,2013-04-23 14:59:00,
2013-04-23 10:04:00,35.0,31.8,30.02,West,269,5.4,7.2,88,0.00,BKN,,0.03,156.0,WeatherDisplay:10.37,2013-04-23 15:04:00,
2013-04-23 10:09:00,35.2,32.3,30.02,NW,321,5.7,8.4,89,0.00,BKN,,0.03,142.0,WeatherDisplay:10.37,2013-04-23 15:09:00,
2013-04-23 10:14:00,35.2,31.7,30.03,WNW,286,8.6,11.5,87,0.00,BKN,,0.03,137.0,WeatherDisplay:10.37,2013-04-23 15:14:00,
2013-04-23 10:19:00,35.3,31.8,30.03,WNW,298,5.0,12.7,87,0.00,BKN,,0.03,162.0,WeatherDisplay:10.37,2013-04-23 15:19:00,
2013-04-23 10:24:00,35.5,31.7,30.03,NW,321,7.3,12.0,86,0.00,SCT,,0.03,172.0,WeatherDisplay:10.37,2013-04-23 15:24:00,
2013-04-23 10:29:00,35.8,32.0,30.03,WNW,291,5.9,9.6,86,0.00,SCT,,0.03,176.0,WeatherDisplay:10.37,2013-04-23 15:29:00,
2013-04-23 10:34:00,36.0,32.2,30.02,WNW,294,9.2,10.8,86,0.00,SCT,,0.03,207.0,WeatherDisplay:10.37,2013-04-23 15:34:00,
2013-04-23 10:39:00,35.9,31.8,30.02,NW,323,6.5,7.2,85,0.00,SCT,,0.03,221.0,WeatherDisplay:10.37,2013-04-23 15:39:00,
2013-04-23 10:44:00,36.0,31.9,30.02,WNW,296,8.3,10.8,85,0.00,BKN,,0.03,202.0,WeatherDisplay:10.37,2013-04-23 15:44:00,
2013-04-23 10:49:00,36.2,31.8,30.03,NW,319,7.5,12.7,84,0.00,BKN,,0.03,214.0,WeatherDisplay:10.37,2013-04-23 15:49:00,
2013-04-23 10:54:00,36.3,31.9,30.03,WNW,291,7.9,10.8,84,0.00,BKN,,0.03,265.0,WeatherDisplay:10.37,2013-04-23 15:54:00,
2013-04-23 10:59:00,36.8,32.4,30.01,NW,325,7.3,8.4,84,0.00,BKN,,0.03,253.0,WeatherDisplay:10.37,2013-04-23 15:59:00,
2013-04-23 11:04:00,36.9,32.2,30.01,NNW,333,9.1,10.8,83,0.00,OVC,,0.03,186.0,WeatherDisplay:10.37,2013-04-23 16:04:00,
2013-04-23 11:09:00,36.8,31.8,30.01,WNW,302,6.4,10.8,82,0.00,OVC,,0.03,221.0,WeatherDisplay:10.37,2013-04-23 16:09:00,
2013-04-23 11:14:00,36.8,31.5,30.01,WNW,301,8.5,9.6,81,0.00,OVC,,0.03,197.0,WeatherDisplay:10.37,2013-04-23 16:14:00,
2013-04-23 11:19:00,36.6,31.3,30.02,WNW,285,6.5,10.8,81,0.00,OVC,,0.03,213.0,WeatherDisplay:10.37,2013-04-23 16:19:00,
2013-04-23 11:24:00,37.0,31.4,30.02,NW,319,6.1,9.6,80,0.00,OVC,,0.03,178.0,WeatherDisplay:10.37,2013-04-23 16:24:00,
2013-04-23 11:29:00,36.8,30.9,30.03,NW,309,11.7,12.0,79,0.00,OVC,,0.03,186.0,WeatherDisplay:10.37,2013-04-23 16:29:00,
2013-04-23 11:34:00,36.6,31.0,30.03,NW,313,7.4,8.4,80,0.00,OVC,,0.03,162.0,WeatherDisplay:10.37,2013-04-23 16:34:00,
2013-04-23 11:39:00,36.8,31.2,30.03,WNW,296,4.8,8.4,80,0.00,OVC,,0.03,190.0,WeatherDisplay:10.37,2013-04-23 16:39:00,
2013-04-23 11:44:00,36.9,30.7,30.03,WNW,288,6.0,8.4,78,0.00,BKN,,0.03,200.0,WeatherDisplay:10.37,2013-04-23 16:44:00,
2013-04-23 11:49:00,37.2,31.0,30.04,WNW,302,5.9,8.4,78,0.00,BKN,,0.03,179.0,WeatherDisplay:10.37,2013-04-23 16:49:00,
2013-04-23 11:54:00,37.2,30.7,30.04,NNW,329,5.4,10.4,77,0.00,BKN,,0.03,188.0,WeatherDisplay:10.37,2013-04-23 16:54:00,
2013-04-23 11:59:00,37.2,30.3,30.04,WNW,288,7.1,8.4,76,0.00,BKN,,0.03,237.0,WeatherDisplay:10.37,2013-04-23 16:59:00,
2013-04-23 12:04:00,37.5,30.6,30.04,NNW,331,6.7,12.0,76,0.00,BKN,,0.03,272.0,WeatherDisplay:10.37,2013-04-23 17:04:00,
2013-04-23 12:09:00,37.6,30.1,30.04,WNW,291,8.4,9.6,74,0.00,BKN,,0.03,297.0,WeatherDisplay:10.37,2013-04-23 17:09:00,
2013-04-23 12:14:00,37.9,30.4,30.04,NW,309,8.3,12.0,74,0.00,BKN,,0.03,248.0,WeatherDisplay:10.37,2013-04-23 17:14:00,
2013-04-23 12:19:00,38.2,30.6,30.03,WNW,283,6.4,10.8,74,0.00,BKN,,0.03,236.0,WeatherDisplay:10.37,2013-04-23 17:19:00,
2013-04-23 12:24:00,38.2,30.6,30.03,NW,306,6.9,9.6,74,0.00,OVC,,0.03,241.0,WeatherDisplay:10.37,2013-04-23 17:24:00,
2013-04-23 12:29:00,38.2,30.6,30.03,NNE,19,8.3,12.0,74,0.00,OVC,,0.03,253.0,WeatherDisplay:10.37,2013-04-23 17:29:00,
2013-04-23 12:34:00,38.3,30.4,30.02,NNE,31,5.3,10.4,73,0.00,OVC,,0.03,262.0,WeatherDisplay:10.37,2013-04-23 17:34:00,
2013-04-23 12:39:00,38.5,30.3,30.02,NW,314,8.0,10.4,72,0.00,OVC,,0.03,285.0,WeatherDisplay:10.37,2013-04-23 17:39:00,
2013-04-23 12:44:00,38.8,30.5,30.01,NW,314,9.6,13.2,72,0.00,OVC,,0.03,366.0,WeatherDisplay:10.37,2013-04-23 17:44:00,
2013-04-23 12:49:00,38.9,30.6,30.01,NNW,333,8.7,11.5,72,0.00,OVC,,0.03,257.0,WeatherDisplay:10.37,2013-04-23 17:49:00,
2013-04-23 12:54:00,38.9,30.3,30.01,NW,310,6.1,10.4,71,0.00,OVC,,0.03,367.0,WeatherDisplay:10.37,2013-04-23 17:54:00,
2013-04-23 12:59:00,39.3,30.3,30.01,NW,321,10.4,17.3,70,0.00,OVC,,0.03,454.0,WeatherDisplay:10.37,2013-04-23 17:59:00,
2013-04-23 13:04:00,39.6,30.3,30.01,NW,321,7.7,11.5,69,0.00,OVC,,0.03,366.0,WeatherDisplay:10.37,2013-04-23 18:04:00,
2013-04-23 13:09:00,39.9,30.5,30.01,NW,310,8.0,10.8,69,0.00,OVC,,0.03,330.0,WeatherDisplay:10.37,2013-04-23 18:09:00,
2013-04-23 13:14:00,39.9,30.2,30.01,NNW,335,8.6,11.5,68,0.00,OVC,,0.03,237.0,WeatherDisplay:10.37,2013-04-23 18:14:00,
2013-04-23 13:19:00,39.9,30.2,30.01,NNW,327,6.9,8.4,68,0.00,OVC,,0.03,160.0,WeatherDisplay:10.37,2013-04-23 18:19:00,
2013-04-23 13:24:00,39.6,30.6,30.01,NNW,340,6.9,12.0,70,0.00,OVC,,0.03,176.0,WeatherDisplay:10.37,2013-04-23 18:24:00,
2013-04-23 13:29:00,39.2,30.2,30.01,WNW,297,8.5,10.8,70,0.00,OVC,,0.03,181.0,WeatherDisplay:10.37,2013-04-23 18:29:00,
2013-04-23 13:34:00,39.2,30.2,30.00,NNW,342,6.8,8.4,70,0.00,OVC,,0.03,229.0,WeatherDisplay:10.37,2013-04-23 18:34:00,
2013-04-23 13:39:00,39.5,30.2,30.00,NNW,338,7.9,16.1,69,0.00,OVC,,0.03,399.0,WeatherDisplay:10.37,2013-04-23 18:39:00,
2013-04-23 13:44:00,39.9,30.2,30.00,North,5,5.8,8.4,68,0.00,OVC,,0.03,279.0,WeatherDisplay:10.37,2013-04-23 18:44:00,
2013-04-23 13:49:00,40.1,30.4,30.00,North,11,7.5,12.0,68,0.00,OVC,,0.03,200.0,WeatherDisplay:10.37,2013-04-23 18:49:00,
2013-04-23 13:54:00,40.1,30.4,30.00,NNW,335,9.3,10.4,68,0.00,OVC,,0.03,165.0,WeatherDisplay:10.37,2013-04-23 18:54:00,
2013-04-23 13:59:00,39.6,29.5,30.01,NW,323,8.1,10.8,67,0.00,OVC,,0.03,158.0,WeatherDisplay:10.37,2013-04-23 18:59:00,
2013-04-23 14:04:00,39.5,29.8,30.01,NNW,340,9.5,15.0,68,0.00,OVC,,0.03,183.0,WeatherDisplay:10.37,2013-04-23 19:04:00,
2013-04-23 14:09:00,39.5,30.2,30.01,NW,321,0.8,5.8,69,0.00,OVC,,0.03,181.0,WeatherDisplay:10.37,2013-04-23 19:09:00,
2013-04-23 14:14:00,39.8,30.1,30.01,NW,316,5.1,7.2,68,0.00,OVC,,0.03,153.0,WeatherDisplay:10.37,2013-04-23 19:14:00,
2013-04-23 14:19:00,39.5,30.5,30.02,WNW,294,10.2,10.8,70,0.00,OVC,,0.03,167.0,WeatherDisplay:10.37,2013-04-23 19:19:00,
2013-04-23 14:24:00,39.3,30.7,30.02,NNW,344,6.0,9.2,71,0.00,BKN,,0.03,204.0,WeatherDisplay:10.37,2013-04-23 19:24:00,
2013-04-23 14:29:00,39.3,30.3,30.02,NW,318,6.0,10.4,70,0.00,BKN,,0.03,169.0,WeatherDisplay:10.37,2013-04-23 19:29:00,
2013-04-23 14:34:00,39.2,30.2,30.01,NNW,333,7.8,10.8,70,0.00,BKN,,0.03,264.0,WeatherDisplay:10.37,2013-04-23 19:34:00,
2013-04-23 14:39:00,39.3,30.3,30.01,NNE,29,3.5,8.1,70,0.00,BKN,,0.03,163.0,WeatherDisplay:10.37,2013-04-23 19:39:00,
2013-04-23 14:44:00,39.5,30.2,30.01,North,360,5.5,8.4,69,0.00,OVC,,0.03,153.0,WeatherDisplay:10.37,2013-04-23 19:44:00,
2013-04-23 14:49:00,39.5,29.8,30.01,North,349,7.9,9.2,68,0.00,OVC,,0.03,202.0,WeatherDisplay:10.37,2013-04-23 19:49:00,
2013-04-23 14:54:00,39.3,30.0,30.01,NNW,331,9.3,14.4,69,0.00,OVC,,0.03,269.0,WeatherDisplay:10.37,2013-04-23 19:54:00,
2013-04-23 14:59:00,39.3,30.0,30.01,NNW,337,5.5,8.4,69,0.00,OVC,,0.03,241.0,WeatherDisplay:10.37,2013-04-23 19:59:00,
2013-04-23 15:04:00,39.5,29.8,30.01,North,5,6.3,8.1,68,0.00,OVC,,0.03,253.0,WeatherDisplay:10.37,2013-04-23 20:04:00,
2013-04-23 15:09:00,39.8,29.7,30.01,WNW,303,7.6,12.0,67,0.00,OVC,,0.03,274.0,WeatherDisplay:10.37,2013-04-23 20:09:00,
2013-04-23 15:14:00,39.8,29.4,30.01,North,351,7.9,9.6,66,0.00,OVC,,0.03,279.0,WeatherDisplay:10.37,2013-04-23 20:14:00,
2013-04-23 15:19:00,39.9,29.8,30.01,North,360,8.7,12.0,67,0.00,OVC,,0.03,221.0,WeatherDisplay:10.37,2013-04-23 20:19:00,
2013-04-23 15:24:00,39.6,29.9,30.01,NNW,332,7.9,10.4,68,0.00,OVC,,0.03,311.0,WeatherDisplay:10.37,2013-04-23 20:24:00,
2013-04-23 15:29:00,39.8,29.7,30.00,NW,304,5.0,12.0,67,0.00,OVC,,0.03,381.0,WeatherDisplay:10.37,2013-04-23 20:29:00,
2013-04-23 15:34:00,40.2,30.1,30.00,NW,325,7.2,10.8,67,0.00,OVC,,0.03,448.0,WeatherDisplay:10.37,2013-04-23 20:34:00,
2013-04-23 15:39:00,40.5,29.7,30.00,NNW,336,9.6,15.0,65,0.00,OVC,,0.03,348.0,WeatherDisplay:10.37,2013-04-23 20:39:00,
2013-04-23 15:44:00,40.2,29.4,30.01,WNW,299,8.6,13.2,65,0.00,OVC,,0.03,339.0,WeatherDisplay:10.37,2013-04-23 20:44:00,
2013-04-23 15:49:00,40.2,29.4,30.01,NW,326,8.4,15.0,65,0.00,OVC,,0.03,376.0,WeatherDisplay:10.37,2013-04-23 20:49:00,
2013-04-23 15:54:00,40.3,29.1,30.01,NNW,328,6.5,9.2,64,0.00,OVC,,0.03,288.0,WeatherDisplay:10.37,2013-04-23 20:54:00,
2013-04-23 15:59:00,40.2,29.0,30.01,NW,325,6.5,9.2,64,0.00,OVC,,0.03,236.0,WeatherDisplay:10.37,2013-04-23 20:59:00,
2013-04-23 16:04:00,40.3,29.5,30.02,NW,322,5.3,8.1,65,0.00,OVC,,0.03,218.0,WeatherDisplay:10.37,2013-04-23 21:04:00,
2013-04-23 16:09:00,40.5,30.0,30.02,NW,304,5.0,8.1,66,0.00,OVC,,0.03,209.0,WeatherDisplay:10.37,2013-04-23 21:09:00,
2013-04-23 16:14:00,40.5,29.7,30.01,NW,323,4.6,6.0,65,0.00,OVC,,0.03,169.0,WeatherDisplay:10.37,2013-04-23 21:14:00,
2013-04-23 16:19:00,40.5,29.7,30.01,North,355,7.1,8.4,65,0.00,OVC,,0.03,162.0,WeatherDisplay:10.37,2013-04-23 21:19:00,
2013-04-23 16:24:00,40.3,29.5,30.01,North,351,5.3,7.2,65,0.00,OVC,,0.03,160.0,WeatherDisplay:10.37,2013-04-23 21:24:00,
2013-04-23 16:29:00,40.3,29.5,30.01,West,277,7.0,9.6,65,0.00,OVC,,0.03,153.0,WeatherDisplay:10.37,2013-04-23 21:29:00,
2013-04-23 16:34:00,40.3,29.8,30.01,WNW,292,5.5,12.0,66,0.00,OVC,,0.03,146.0,WeatherDisplay:10.37,2013-04-23 21:34:00,
2013-04-23 16:39:00,40.3,29.5,30.01,NNW,336,4.5,6.9,65,0.00,OVC,,0.03,102.0,WeatherDisplay:10.37,2013-04-23 21:39:00,
2013-04-23 16:44:00,40.3,29.5,30.01,North,350,6.7,8.4,65,0.00,OVC,,0.03,151.0,WeatherDisplay:10.37,2013-04-23 21:44:00,
2013-04-23 16:49:00,40.2,29.0,30.01,NNW,340,6.9,10.4,64,0.00,OVC,,0.03,151.0,WeatherDisplay:10.37,2013-04-23 21:49:00,
2013-04-23 16:54:00,40.2,29.4,30.01,NNE,31,7.2,10.8,65,0.00,OVC,,0.03,107.0,WeatherDisplay:10.37,2013-04-23 21:54:00,
2013-04-23 16:59:00,40.2,29.4,30.01,NW,319,4.4,7.2,65,0.00,OVC,,0.03,81.0,WeatherDisplay:10.37,2013-04-23 21:59:00,
2013-04-23 17:04:00,40.2,29.4,30.02,NNW,340,6.0,9.6,65,0.00,OVC,,0.03,111.0,WeatherDisplay:10.37,2013-04-23 22:04:00,
2013-04-23 17:09:00,40.1,28.9,30.02,NNW,336,8.7,10.4,64,0.00,OVC,,0.03,141.0,WeatherDisplay:10.37,2013-04-23 22:09:00,
2013-04-23 17:14:00,40.2,29.4,30.02,NW,312,3.9,6.0,65,0.00,OVC,,0.03,158.0,WeatherDisplay:10.37,2013-04-23 22:14:00,
2013-04-23 17:19:00,40.2,29.0,30.02,NNE,24,6.2,11.5,64,0.00,OVC,,0.03,118.0,WeatherDisplay:10.37,2013-04-23 22:19:00,
2013-04-23 17:24:00,40.2,29.4,30.02,NW,317,4.3,7.2,65,0.00,OVC,,0.03,125.0,WeatherDisplay:10.37,2013-04-23 22:24:00,
2013-04-23 17:29:00,40.2,29.0,30.01,NW,325,5.7,6.9,64,0.00,OVC,,0.03,128.0,WeatherDisplay:10.37,2013-04-23 22:29:00,
2013-04-23 17:34:00,40.2,29.0,30.01,NW,318,2.5,7.2,64,0.00,OVC,,0.03,137.0,WeatherDisplay:10.37,2013-04-23 22:34:00,
2013-04-23 17:39:00,40.2,29.0,30.01,North,355,9.2,9.6,64,0.00,OVC,,0.03,109.0,WeatherDisplay:10.37,2013-04-23 22:39:00,
2013-04-23 17:44:00,40.1,28.5,30.01,NNW,336,7.6,8.4,63,0.00,OVC,,0.03,93.0,WeatherDisplay:10.37,2013-04-23 22:44:00,
2013-04-23 17:49:00,40.1,28.9,30.01,North,355,7.7,10.8,64,0.00,OVC,,0.03,107.0,WeatherDisplay:10.37,2013-04-23 22:49:00,
2013-04-23 17:54:00,39.9,28.7,30.01,NNE,16,5.0,10.4,64,0.00,OVC,,0.03,114.0,WeatherDisplay:10.37,2013-04-23 22:54:00,
2013-04-23 17:59:00,39.9,28.7,30.01,WNW,296,4.2,6.0,64,0.00,OVC,,0.03,79.0,WeatherDisplay:10.37,2013-04-23 22:59:00,
2013-04-23 18:04:00,39.9,28.3,30.01,NNW,328,7.3,9.6,63,0.00,OVC,,0.03,53.0,WeatherDisplay:10.37,2013-04-23 23:04:00,
2013-04-23 18:09:00,39.9,29.1,30.01,NNW,338,0.0,4.6,65,0.00,OVC,,0.03,53.0,WeatherDisplay:10.37,2013-04-23 23:09:00,
2013-04-23 18:14:00,39.9,28.7,30.01,NNW,348,4.3,7.2,64,0.00,OVC,,0.03,49.0,WeatherDisplay:10.37,2013-04-23 23:14:00,
2013-04-23 18:19:00,39.8,28.6,30.01,North,5,3.0,4.8,64,0.00,OVC,,0.03,63.0,WeatherDisplay:10.37,2013-04-23 23:19:00,
2013-04-23 18:24:00,39.8,28.6,30.01,NNW,331,4.8,9.2,64,0.00,OVC,,0.03,67.0,WeatherDisplay:10.37,2013-04-23 23:24:00,
2013-04-23 18:29:00,39.6,28.4,30.01,NE,38,4.5,8.4,64,0.00,OVC,,0.03,56.0,WeatherDisplay:10.37,2013-04-23 23:29:00,
2013-04-23 18:34:00,39.6,28.4,30.02,NE,51,5.2,7.2,64,0.00,OVC,,0.03,51.0,WeatherDisplay:10.37,2013-04-23 23:34:00,
2013-04-23 18:39:00,39.6,28.4,30.02,NNE,27,2.4,4.8,64,0.00,OVC,,0.03,46.0,WeatherDisplay:10.37,2013-04-23 23:39:00,
2013-04-23 18:44:00,39.6,28.8,30.02,NW,317,3.7,6.0,65,0.00,OVC,,0.03,42.0,WeatherDisplay:10.37,2013-04-23 23:44:00,
2013-04-23 18:49:00,39.5,28.3,30.01,NW,325,5.8,8.4,64,0.00,OVC,,0.03,40.0,WeatherDisplay:10.37,2013-04-23 23:49:00,
2013-04-23 18:54:00,39.5,28.3,30.01,NW,313,4.2,6.0,64,0.00,OVC,,0.03,37.0,WeatherDisplay:10.37,2013-04-23 23:54:00,
2013-04-23 18:59:00,39.5,28.3,30.01,NNW,339,5.1,6.0,64,0.00,OVC,,0.03,25.0,WeatherDisplay:10.37,2013-04-23 23:59:00,
2013-04-23 19:04:00,39.3,28.1,30.01,NNW,335,5.7,7.2,64,0.00,OVC,,0.03,23.0,WeatherDisplay:10.37,2013-04-24 00:04:00,
2013-04-23 19:09:00,39.3,28.1,30.01,North,355,4.5,7.2,64,0.00,OVC,,0.03,21.0,WeatherDisplay:10.37,2013-04-24 00:09:00,
2013-04-23 19:14:00,39.2,28.0,30.02,NW,315,2.3,4.8,64,0.00,OVC,,0.03,12.0,WeatherDisplay:10.37,2013-04-24 00:14:00,
2013-04-23 19:19:00,39.2,28.0,30.02,NW,324,1.8,4.8,64,0.00,OVC,,0.03,12.0,WeatherDisplay:10.37,2013-04-24 00:19:00,
2013-04-23 19:24:00,39.2,28.0,30.02,NW,323,5.0,8.4,64,0.00,OVC,,0.03,12.0,WeatherDisplay:10.37,2013-04-24 00:24:00,
2013-04-23 19:29:00,39.2,28.0,30.02,WNW,299,2.5,6.0,64,0.00,OVC,,0.03,9.0,WeatherDisplay:10.37,2013-04-24 00:29:00,
2013-04-23 19:34:00,39.1,27.9,30.02,North,355,1.1,4.6,64,0.00,OVC,,0.03,5.0,WeatherDisplay:10.37,2013-04-24 00:34:00,
2013-04-23 19:39:00,39.1,27.9,30.02,NW,325,0.0,1.2,64,0.00,OVC,,0.03,5.0,WeatherDisplay:10.37,2013-04-24 00:39:00,
2013-04-23 19:44:00,39.1,28.3,30.02,NNW,334,4.3,6.0,65,0.00,BKN,,0.03,0.0,WeatherDisplay:10.37,2013-04-24 00:44:00,
2013-04-23 19:49:00,38.9,28.1,30.02,North,5,1.9,3.6,65,0.00,BKN,,0.03,0.0,WeatherDisplay:10.37,2013-04-24 00:49:00,
2013-04-23 19:54:00,38.9,28.1,30.02,North,355,0.0,2.3,65,0.00,BKN,,0.03,0.0,WeatherDisplay:10.37,2013-04-24 00:54:00,
2013-04-23 19:59:00,38.9,28.1,30.02,NNW,329,0.0,2.3,65,0.00,BKN,,0.03,0.0,WeatherDisplay:10.37,2013-04-24 00:59:00,
2013-04-23 20:04:00,38.9,28.5,30.02,NNW,329,0.0,1.2,66,0.00,BKN,,0.03,0.0,WeatherDisplay:10.37,2013-04-24 01:04:00,
2013-04-23 20:09:00,38.8,28.0,30.02,NNW,329,0.6,3.6,65,0.00,BKN,,0.03,0.0,WeatherDisplay:10.37,2013-04-24 01:09:00,
2013-04-23 20:14:00,38.8,28.4,30.02,NNW,329,0.0,0.0,66,0.00,BKN,,0.03,0.0,WeatherDisplay:10.37,2013-04-24 01:14:00,
2013-04-23 20:19:00,38.8,28.0,30.02,NNW,336,0.1,1.2,65,0.00,BKN,,0.03,0.0,WeatherDisplay:10.37,2013-04-24 01:19:00,
2013-04-23 20:24:00,38.6,27.8,30.02,NNW,338,2.1,3.6,65,0.00,SCT,,0.03,0.0,WeatherDisplay:10.37,2013-04-24 01:24:00,
2013-04-23 20:29:00,38.6,28.2,30.03,NNW,333,0.1,2.4,66,0.00,SCT,,0.03,0.0,WeatherDisplay:10.37,2013-04-24 01:29:00,
2013-04-23 20:34:00,38.5,28.1,30.03,NNW,333,3.1,4.8,66,0.00,SCT,,0.03,0.0,WeatherDisplay:10.37,2013-04-24 01:34:00,
2013-04-23 20:39:00,38.3,28.3,30.03,NNW,333,0.0,0.0,67,0.00,SCT,,0.03,0.0,WeatherDisplay:10.37,2013-04-24 01:39:00,
2013-04-23 20:44:00,38.2,28.2,30.03,NNW,333,1.1,3.6,67,0.00,CLR,,0.03,0.0,WeatherDisplay:10.37,2013-04-24 01:44:00,
2013-04-23 20:49:00,38.0,27.6,30.03,NW,320,1.8,3.6,66,0.00,CLR,,0.03,0.0,WeatherDisplay:10.37,2013-04-24 01:49:00,
2013-04-23 20:54:00,38.0,27.6,30.03,NW,320,0.1,1.2,66,0.00,CLR,,0.03,0.0,WeatherDisplay:10.37,2013-04-24 01:54:00,
2013-04-23 20:59:00,37.8,27.5,30.04,NW,320,0.3,2.4,66,0.00,CLR,,0.03,0.0,WeatherDisplay:10.37,2013-04-24 01:59:00,
2013-04-23 21:04:00,37.6,27.3,30.04,NW,320,0.1,2.3,66,0.00,CLR,,0.03,0.0,WeatherDisplay:10.37,2013-04-24 02:04:00,
2013-04-23 21:09:00,37.5,27.2,30.04,NW,320,0.0,0.0,66,0.00,CLR,,0.03,0.0,WeatherDisplay:10.37,2013-04-24 02:09:00,
2013-04-23 21:14:00,37.3,27.0,30.05,NW,320,0.0,0.0,66,0.00,CLR,,0.03,0.0,WeatherDisplay:10.37,2013-04-24 02:14:00,
2013-04-23 21:19:00,37.2,26.9,30.05,NW,320,0.0,0.0,66,0.00,CLR,,0.03,0.0,WeatherDisplay:10.37,2013-04-24 02:19:00,
2013-04-23 21:24:00,37.2,27.2,30.05,NW,320,0.0,0.0,67,0.00,CLR,,0.03,0.0,WeatherDisplay:10.37,2013-04-24 02:24:00,
2013-04-23 21:29:00,36.9,26.6,30.04,NW,320,1.1,3.6,66,0.00,CLR,,0.03,0.0,WeatherDisplay:10.37,2013-04-24 02:29:00,
2013-04-23 21:34:00,36.9,26.6,30.04,NNE,21,4.2,6.0,66,0.00,CLR,,0.03,0.0,WeatherDisplay:10.37,2013-04-24 02:34:00,
2013-04-23 21:39:00,37.0,27.1,30.04,NNE,21,0.6,2.4,67,0.00,CLR,,0.03,0.0,WeatherDisplay:10.37,2013-04-24 02:39:00,
2013-04-23 21:45:00,37.0,27.4,30.05,NNE,12,1.3,3.6,68,0.00,CLR,,0.03,0.0,WeatherDisplay:10.37,2013-04-24 02:45:00,
2013-04-23 21:50:00,36.9,27.7,30.05,NNE,25,2.6,6.0,69,0.00,CLR,,0.03,0.0,WeatherDisplay:10.37,2013-04-24 02:50:00,
2013-04-23 21:55:00,36.8,27.9,30.05,NNE,26,0.7,3.5,70,0.00,CLR,,0.03,0.0,WeatherDisplay:10.37,2013-04-24 02:55:00,
2013-04-23 22:00:00,36.6,27.7,30.05,NNE,26,0.0,0.0,70,0.00,CLR,,0.03,0.0,WeatherDisplay:10.37,2013-04-24 03:00:00,
2013-04-23 22:05:00,36.5,28.0,30.05,NNE,26,0.1,1.2,71,0.00,BKN,,0.03,0.0,WeatherDisplay:10.37,2013-04-24 03:05:00,
2013-04-23 22:10:00,36.3,27.8,30.05,NNE,26,0.4,2.4,71,0.00,BKN,,0.03,0.0,WeatherDisplay:10.37,2013-04-24 03:10:00,
2013-04-23 22:15:00,36.0,27.8,30.04,North,349,0.0,1.2,72,0.00,BKN,,0.03,0.0,WeatherDisplay:10.37,2013-04-24 03:15:00,
2013-04-23 22:20:00,35.9,27.7,30.04,North,349,0.1,2.3,72,0.00,BKN,,0.03,0.0,WeatherDisplay:10.37,2013-04-24 03:20:00,
2013-04-23 22:25:00,35.8,27.7,30.04,North,349,0.0,0.0,72,0.00,BKN,,0.03,0.0,WeatherDisplay:10.37,2013-04-24 03:25:00,
2013-04-23 22:31:00,35.5,27.7,30.05,North,349,0.0,0.0,73,0.00,BKN,,0.03,0.0,WeatherDisplay:10.37,2013-04-24 03:31:00,
2013-04-23 22:36:00,35.3,27.5,30.05,North,349,0.0,0.0,73,0.00,BKN,,0.03,0.0,WeatherDisplay:10.37,2013-04-24 03:36:00,
2013-04-23 22:41:00,35.2,27.4,30.05,North,349,0.0,0.0,73,0.00,BKN,,0.03,0.0,WeatherDisplay:10.37,2013-04-24 03:41:00,
2013-04-23 22:46:00,35.0,27.2,30.05,North,349,0.0,0.0,73,0.00,BKN,,0.03,0.0,WeatherDisplay:10.37,2013-04-24 03:46:00,
2013-04-23 22:51:00,35.0,27.2,30.05,North,349,0.0,0.0,73,0.00,BKN,,0.03,0.0,WeatherDisplay:10.37,2013-04-24 03:51:00,
2013-04-23 22:56:00,34.9,27.1,30.05,North,349,0.0,0.0,73,0.00,BKN,,0.03,0.0,WeatherDisplay:10.37,2013-04-24 03:56:00,
2013-04-23 23:01:00,34.9,27.1,30.05,North,349,0.0,0.0,73,0.00,BKN,,0.03,0.0,WeatherDisplay:10.37,2013-04-24 04:01:00,
2013-04-23 23:02:00,34.9,27.1,30.05,North,349,0.0,0.0,73,0.00,BKN,,0.03,0.0,WeatherDisplay:10.37,2013-04-24 04:02:00,
2013-04-23 23:03:00,34.9,27.1,30.05,North,349,0.6,1.2,73,0.00,BKN,,0.03,0.0,WeatherDisplay:10.37,2013-04-24 04:03:00,
2013-04-23 23:08:00,34.9,27.5,30.05,North,349,0.0,0.0,74,0.00,BKN,,0.03,0.0,WeatherDisplay:10.37,2013-04-24 04:08:00,
2013-04-23 23:13:00,34.6,27.2,30.05,North,349,0.0,0.0,74,0.00,BKN,,0.03,0.0,WeatherDisplay:10.37,2013-04-24 04:13:00,
2013-04-23 23:18:00,34.4,27.0,30.04,North,349,0.0,0.0,74,0.00,BKN,,0.03,0.0,WeatherDisplay:10.37,2013-04-24 04:18:00,
2013-04-23 23:23:00,34.3,27.2,30.04,North,349,0.2,1.2,75,0.00,SCT,,0.03,0.0,WeatherDisplay:10.37,2013-04-24 04:23:00,
2013-04-23 23:28:00,34.3,27.2,30.04,North,349,0.0,0.0,75,0.00,SCT,,0.03,0.0,WeatherDisplay:10.37,2013-04-24 04:28:00,
2013-04-23 23:33:00,34.3,27.2,30.04,North,349,0.0,0.0,75,0.00,SCT,,0.03,0.0,WeatherDisplay:10.37,2013-04-24 04:33:00,
2013-04-23 23:38:00,34.3,27.5,30.04,North,349,0.0,0.0,76,0.00,SCT,,0.03,0.0,WeatherDisplay:10.37,2013-04-24 04:38:00,
2013-04-23 23:43:00,34.1,27.3,30.04,North,349,0.1,1.2,76,0.00,CLR,,0.03,0.0,WeatherDisplay:10.37,2013-04-24 04:43:00,
2013-04-23 23:48:00,34.1,27.3,30.04,North,349,0.0,0.0,76,0.00,CLR,,0.03,0.0,WeatherDisplay:10.37,2013-04-24 04:48:00,
2013-04-23 23:53:00,34.1,27.3,30.04,North,349,0.0,0.0,76,0.00,CLR,,0.03,0.0,WeatherDisplay:10.37,2013-04-24 04:53:00,
2013-04-23 23:58:00,34.1,27.3,30.04,North,349,0.0,0.0,76,0.00,CLR,,0.03,0.0,WeatherDisplay:10.37,2013-04-24 04:58:00,